createdAt,value
2022-11-07T00:00:49.758Z,8.50
2022-11-07T00:03:19.846Z,8.50
2022-11-07T00:05:48.168Z,8.50
2022-11-07T00:08:16.429Z,8.50
2022-11-07T00:10:55.543Z,8.50
2022-11-07T00:13:23.941Z,8.50
2022-11-07T00:16:17.410Z,8.50
2022-11-07T00:18:47.056Z,8.40
2022-11-07T00:21:15.340Z,8.40
2022-11-07T00:23:44.060Z,8.40
2022-11-07T00:26:14.293Z,8.50
2022-11-07T00:28:44.578Z,8.50
2022-11-07T00:31:15.329Z,8.40
2022-11-07T00:33:44.293Z,8.50
2022-11-07T00:36:18.977Z,8.50
2022-11-07T00:39:12.381Z,8.40
2022-11-07T00:41:40.670Z,8.40
2022-11-07T00:44:09.284Z,8.40
2022-11-07T00:46:38.850Z,8.30
2022-11-07T00:49:07.156Z,8.30
2022-11-07T00:51:36.787Z,8.20
2022-11-07T00:54:05.965Z,8.10
2022-11-07T00:56:55.944Z,8.10
2022-11-07T00:59:24.230Z,8.10
2022-11-07T01:01:52.579Z,8.10
2022-11-07T01:04:38.130Z,8.00
2022-11-07T01:07:15.168Z,8.00
2022-11-07T01:09:43.446Z,8.00
2022-11-07T01:12:11.629Z,8.10
2022-11-07T01:14:39.927Z,8.00
2022-11-07T01:17:08.206Z,7.90
2022-11-07T01:19:36.397Z,7.90
2022-11-07T01:22:04.689Z,8.00
2022-11-07T01:24:34.326Z,8.00
2022-11-07T01:27:09.014Z,8.00
2022-11-07T01:29:37.401Z,8.00
2022-11-07T01:32:06.295Z,7.90
2022-11-07T01:34:34.503Z,7.80
2022-11-07T01:37:02.793Z,7.80
2022-11-07T01:39:31.001Z,7.80
2022-11-07T01:42:00.801Z,7.80
2022-11-07T01:44:55.241Z,7.80
2022-11-07T01:47:25.192Z,7.90
2022-11-07T01:49:54.147Z,7.90
2022-11-07T01:52:26.047Z,7.90
2022-11-07T01:55:00.560Z,7.90
2022-11-07T01:57:33.355Z,7.90
2022-11-07T02:00:06.160Z,8.00
2022-11-07T02:02:35.274Z,8.00
2022-11-07T02:05:06.196Z,8.00
2022-11-07T02:07:34.657Z,8.00
2022-11-07T02:10:28.404Z,8.00
2022-11-07T02:13:51.409Z,8.00
2022-11-07T02:16:56.310Z,8.00
2022-11-07T02:19:34.185Z,8.00
2022-11-07T02:22:12.140Z,8.00
2022-11-07T02:24:42.609Z,8.10
2022-11-07T02:27:14.650Z,8.00
2022-11-07T02:29:46.214Z,8.00
2022-11-07T02:32:14.797Z,8.00
2022-11-07T02:34:43.111Z,8.00
2022-11-07T02:37:22.221Z,7.90
2022-11-07T02:40:12.111Z,7.90
2022-11-07T02:42:46.498Z,7.90
2022-11-07T02:45:18.598Z,7.90
2022-11-07T02:47:47.142Z,8.00
2022-11-07T02:50:27.841Z,7.90
2022-11-07T02:52:56.094Z,7.90
2022-11-07T02:55:25.765Z,8.00
2022-11-07T02:57:53.992Z,8.00
2022-11-07T03:00:22.327Z,8.10
2022-11-07T03:02:50.777Z,8.10
2022-11-07T03:05:21.334Z,8.10
2022-11-07T03:07:51.030Z,8.10
2022-11-07T03:10:19.945Z,8.10
2022-11-07T03:13:14.962Z,8.20
2022-11-07T03:15:43.432Z,8.30
2022-11-07T03:18:11.824Z,8.30
2022-11-07T03:20:40.114Z,8.50
2022-11-07T03:23:08.480Z,8.50
2022-11-07T03:25:36.855Z,8.60
2022-11-07T03:28:05.384Z,8.60
2022-11-07T03:30:35.150Z,8.70
2022-11-07T03:33:03.467Z,8.70
2022-11-07T03:35:31.854Z,8.80
2022-11-07T03:38:00.153Z,8.80
2022-11-07T03:40:28.558Z,8.90
2022-11-07T03:42:56.888Z,8.90
2022-11-07T03:45:25.373Z,8.90
2022-11-07T03:47:54.956Z,9.00
2022-11-07T03:50:23.552Z,9.10
2022-11-07T03:52:51.770Z,9.10
2022-11-07T03:55:57.321Z,9.10
2022-11-07T03:58:26.360Z,9.20
2022-11-07T04:01:17.576Z,9.20
2022-11-07T04:03:47.174Z,9.30
2022-11-07T04:06:17.832Z,9.40
2022-11-07T04:08:46.129Z,9.40
2022-11-07T04:11:34.333Z,9.40
2022-11-07T04:14:20.110Z,9.50
2022-11-07T04:17:05.773Z,9.60
2022-11-07T04:19:35.412Z,9.60
2022-11-07T04:22:03.628Z,9.70
2022-11-07T04:24:34.293Z,9.70
2022-11-07T04:27:20.272Z,9.80
2022-11-07T04:29:48.455Z,9.80
2022-11-07T04:32:16.719Z,9.80
2022-11-07T04:34:46.337Z,9.70
2022-11-07T04:37:14.619Z,9.70
2022-11-07T04:39:42.797Z,9.70
2022-11-07T04:42:11.007Z,9.70
2022-11-07T04:44:39.201Z,9.60
2022-11-07T04:47:34.228Z,9.60
2022-11-07T04:50:07.892Z,9.60
2022-11-07T04:52:36.263Z,9.60
2022-11-07T04:55:04.903Z,9.50
2022-11-07T04:57:59.567Z,9.40
2022-11-07T05:00:27.853Z,9.40
2022-11-07T05:02:56.213Z,9.30
2022-11-07T05:05:25.908Z,9.30
2022-11-07T05:07:54.102Z,9.30
2022-11-07T05:10:25.371Z,9.30
2022-11-07T05:12:54.124Z,9.30
2022-11-07T05:15:22.670Z,9.30
2022-11-07T05:17:51.048Z,9.30
2022-11-07T05:20:33.103Z,9.30
2022-11-07T05:23:13.526Z,9.40
2022-11-07T05:25:42.915Z,9.40
2022-11-07T05:28:11.786Z,9.50
2022-11-07T05:30:41.532Z,9.50
2022-11-07T05:33:10.352Z,9.50
2022-11-07T05:35:40.203Z,9.60
2022-11-07T05:38:08.535Z,9.50
2022-11-07T05:40:38.337Z,9.50
2022-11-07T05:43:08.463Z,9.60
2022-11-07T05:45:42.698Z,9.60
2022-11-07T05:48:12.605Z,9.60
2022-11-07T05:50:42.548Z,9.70
2022-11-07T05:53:10.874Z,9.70
2022-11-07T05:55:39.323Z,9.70
2022-11-07T05:58:11.872Z,9.80
2022-11-07T06:00:40.309Z,9.80
2022-11-07T06:03:09.197Z,9.90
2022-11-07T06:05:39.088Z,10.00
2022-11-07T06:08:28.255Z,10.00
2022-11-07T06:10:56.564Z,10.00
2022-11-07T06:13:24.763Z,10.10
2022-11-07T06:15:52.944Z,10.10
2022-11-07T06:18:28.361Z,10.20
2022-11-07T06:20:56.597Z,10.30
2022-11-07T06:23:25.058Z,10.30
2022-11-07T06:25:54.705Z,10.40
2022-11-07T06:28:22.941Z,10.50
2022-11-07T06:30:51.162Z,10.50
2022-11-07T06:33:20.630Z,10.60
2022-11-07T06:35:48.980Z,10.60
2022-11-07T06:38:17.189Z,10.70
2022-11-07T06:40:45.468Z,10.80
2022-11-07T06:43:17.895Z,10.80
2022-11-07T06:45:48.051Z,10.90
2022-11-07T06:48:16.340Z,10.90
2022-11-07T06:50:44.563Z,11.00
2022-11-07T06:53:15.002Z,11.00
2022-11-07T06:55:43.462Z,11.00
2022-11-07T06:58:11.704Z,11.10
2022-11-07T07:00:41.327Z,11.00
2022-11-07T07:03:09.742Z,11.00
2022-11-07T07:05:38.256Z,11.10
2022-11-07T07:08:07.931Z,11.10
2022-11-07T07:10:39.068Z,11.10
2022-11-07T07:13:07.440Z,11.20
2022-11-07T07:15:49.795Z,11.30
2022-11-07T07:18:21.110Z,11.40
2022-11-07T07:21:15.268Z,11.50
2022-11-07T07:23:43.554Z,11.60
2022-11-07T07:26:37.348Z,11.70
2022-11-07T07:29:05.558Z,11.80
2022-11-07T07:31:33.929Z,11.80
2022-11-07T07:34:03.538Z,11.90
2022-11-07T07:36:33.123Z,11.90
2022-11-07T07:39:01.317Z,11.90
2022-11-07T07:41:29.551Z,12.00
2022-11-07T07:43:57.721Z,12.10
2022-11-07T07:46:26.638Z,12.10
2022-11-07T07:48:54.863Z,12.10
2022-11-07T07:51:24.492Z,12.10
2022-11-07T07:53:53.691Z,12.10
2022-11-07T07:56:21.856Z,12.20
2022-11-07T07:59:15.172Z,12.20
2022-11-07T08:01:43.529Z,12.30
2022-11-07T08:04:11.855Z,12.30
2022-11-07T08:06:41.495Z,12.30
2022-11-07T08:09:09.718Z,12.40
2022-11-07T08:11:37.939Z,12.50
2022-11-07T08:14:12.475Z,12.50
2022-11-07T08:16:40.693Z,12.50
2022-11-07T08:19:08.857Z,12.50
2022-11-07T08:21:37.047Z,12.50
2022-11-07T08:24:07.489Z,12.60
2022-11-07T08:26:35.689Z,12.60
2022-11-07T08:29:03.928Z,12.70
2022-11-07T08:31:32.243Z,12.80
2022-11-07T08:34:01.278Z,12.90
2022-11-07T08:36:29.623Z,13.10
2022-11-07T08:38:57.870Z,13.30
2022-11-07T08:41:27.473Z,13.40
2022-11-07T08:43:55.718Z,13.50
2022-11-07T08:46:23.920Z,13.50
2022-11-07T08:48:52.295Z,13.50
2022-11-07T08:51:39.168Z,13.60
2022-11-07T08:54:07.552Z,13.80
2022-11-07T08:56:37.260Z,13.80
2022-11-07T08:59:05.573Z,13.80
2022-11-07T09:01:33.935Z,13.80
2022-11-07T09:04:06.547Z,13.80
2022-11-07T09:06:34.887Z,13.80
2022-11-07T09:09:03.421Z,13.90
2022-11-07T09:11:31.650Z,14.00
2022-11-07T09:14:27.589Z,14.10
2022-11-07T09:16:55.825Z,14.10
2022-11-07T09:19:24.082Z,14.20
2022-11-07T09:21:52.264Z,14.40
2022-11-07T09:24:20.666Z,14.60
2022-11-07T09:26:48.933Z,14.70
2022-11-07T09:29:17.197Z,14.80
2022-11-07T09:31:46.825Z,14.70
2022-11-07T09:34:15.022Z,14.70
2022-11-07T09:36:43.261Z,14.60
2022-11-07T09:39:11.475Z,14.50
2022-11-07T09:41:51.422Z,14.50
2022-11-07T09:44:39.644Z,14.40
2022-11-07T09:47:19.230Z,14.50
2022-11-07T09:49:49.161Z,14.50
2022-11-07T09:52:22.769Z,14.50
2022-11-07T09:54:57.010Z,14.50
2022-11-07T09:57:34.556Z,14.60
2022-11-07T10:00:06.075Z,14.70
2022-11-07T10:02:51.725Z,14.70
2022-11-07T10:05:30.449Z,14.70
2022-11-07T10:08:04.445Z,14.60
2022-11-07T10:10:59.380Z,14.60
2022-11-07T10:14:24.641Z,14.60
2022-11-07T10:17:02.874Z,14.60
2022-11-07T10:19:57.174Z,14.60
2022-11-07T10:22:47.768Z,14.60
2022-11-07T10:25:22.203Z,14.50
2022-11-07T10:27:56.002Z,14.60
2022-11-07T10:30:24.210Z,14.70
2022-11-07T10:32:59.471Z,14.90
2022-11-07T10:35:32.104Z,14.90
2022-11-07T10:38:02.004Z,15.00
2022-11-07T10:40:35.687Z,15.00
2022-11-07T10:43:08.219Z,15.00
2022-11-07T10:45:38.439Z,15.30
2022-11-07T10:48:07.469Z,15.50
2022-11-07T10:50:37.235Z,15.60
2022-11-07T10:53:30.516Z,15.70
2022-11-07T10:55:59.832Z,15.70
2022-11-07T10:58:31.064Z,15.70
2022-11-07T11:01:02.678Z,15.80
2022-11-07T11:03:43.740Z,15.90
2022-11-07T11:06:24.887Z,16.00
2022-11-07T11:08:54.217Z,16.10
2022-11-07T11:11:31.979Z,16.20
2022-11-07T11:14:11.107Z,16.20
2022-11-07T11:16:41.637Z,16.20
2022-11-07T11:19:22.100Z,16.40
2022-11-07T11:21:55.540Z,16.50
2022-11-07T11:24:31.318Z,16.60
2022-11-07T11:27:03.095Z,16.70
2022-11-07T11:30:05.473Z,16.60
2022-11-07T11:32:39.031Z,16.50
2022-11-07T11:35:21.125Z,16.40
2022-11-07T11:37:58.074Z,16.50
2022-11-07T11:40:26.536Z,16.50
2022-11-07T11:43:01.632Z,16.40
2022-11-07T11:45:36.792Z,16.30
2022-11-07T11:48:16.853Z,16.30
2022-11-07T11:50:50.859Z,16.40
2022-11-07T11:53:22.725Z,16.50
2022-11-07T11:55:59.195Z,16.50
2022-11-07T11:58:41.139Z,16.50
2022-11-07T12:01:18.712Z,16.60
2022-11-07T12:03:57.631Z,16.60
2022-11-07T12:06:31.857Z,16.60
2022-11-07T12:09:25.196Z,16.60
2022-11-07T12:12:17.477Z,16.80
2022-11-07T12:15:19.914Z,16.80
2022-11-07T12:17:54.243Z,16.80
2022-11-07T12:20:27.800Z,16.80
2022-11-07T12:23:09.113Z,16.90
2022-11-07T12:25:44.447Z,16.80
2022-11-07T12:28:28.717Z,16.80
2022-11-07T12:31:05.346Z,16.80
2022-11-07T12:33:40.737Z,16.80
2022-11-07T12:36:18.596Z,16.80
2022-11-07T12:39:20.392Z,16.70
2022-11-07T12:41:58.910Z,16.90
2022-11-07T12:44:47.980Z,16.90
2022-11-07T12:47:32.516Z,16.90
2022-11-07T12:50:15.269Z,16.90
2022-11-07T12:53:01.714Z,17.00
2022-11-07T12:56:24.445Z,17.10
2022-11-07T12:58:54.621Z,17.10
2022-11-07T13:01:32.052Z,17.10
2022-11-07T13:04:29.044Z,17.20
2022-11-07T13:07:06.141Z,17.40
2022-11-07T13:09:39.928Z,17.30
2022-11-07T13:12:15.880Z,17.30
2022-11-07T13:14:46.308Z,17.20
2022-11-07T13:17:16.964Z,17.20
2022-11-07T13:19:46.665Z,17.20
2022-11-07T13:22:24.341Z,17.20
2022-11-07T13:24:56.889Z,17.20
2022-11-07T13:27:34.466Z,17.10
2022-11-07T13:30:20.691Z,17.00
2022-11-07T13:32:50.250Z,17.00
2022-11-07T13:35:32.571Z,17.00
2022-11-07T13:38:08.269Z,16.90
2022-11-07T13:40:39.132Z,16.90
2022-11-07T13:43:14.059Z,16.90
2022-11-07T13:45:50.560Z,16.80
2022-11-07T13:48:46.756Z,16.80
2022-11-07T13:51:20.603Z,16.80
2022-11-07T13:53:59.019Z,16.80
2022-11-07T13:56:33.793Z,16.80
2022-11-07T13:59:06.475Z,16.70
2022-11-07T14:02:25.333Z,16.80
2022-11-07T14:05:15.335Z,16.70
2022-11-07T14:07:48.827Z,16.60
2022-11-07T14:10:25.941Z,16.50
2022-11-07T14:13:00.412Z,16.50
2022-11-07T14:15:28.808Z,16.40
2022-11-07T14:17:57.281Z,16.30
2022-11-07T14:20:27.021Z,16.30
2022-11-07T14:23:15.084Z,16.20
2022-11-07T14:25:43.320Z,16.20
2022-11-07T14:28:17.733Z,16.10
2022-11-07T14:30:51.573Z,16.00
2022-11-07T14:33:21.826Z,15.90
2022-11-07T14:35:53.072Z,15.80
2022-11-07T14:38:25.338Z,15.70
2022-11-07T14:40:55.544Z,15.70
2022-11-07T14:43:35.784Z,15.60
2022-11-07T14:46:14.338Z,15.50
2022-11-07T14:48:44.508Z,15.40
2022-11-07T14:51:16.849Z,15.30
2022-11-07T14:53:54.438Z,15.20
2022-11-07T14:56:26.221Z,15.10
2022-11-07T14:58:54.880Z,15.00
2022-11-07T15:01:27.605Z,14.90
2022-11-07T15:03:58.635Z,14.80
2022-11-07T15:06:34.032Z,14.70
2022-11-07T15:09:04.639Z,14.60
2022-11-07T15:11:35.523Z,14.50
2022-11-07T15:14:06.659Z,14.40
2022-11-07T15:16:38.885Z,14.30
2022-11-07T15:19:11.150Z,14.20
2022-11-07T15:21:53.319Z,14.10
2022-11-07T15:24:34.943Z,14.00
2022-11-07T15:27:05.214Z,13.90
2022-11-07T15:29:36.011Z,13.80
2022-11-07T15:32:15.372Z,13.70
2022-11-07T15:37:33.765Z,13.40
2022-11-07T15:40:02.043Z,13.30
2022-11-07T15:42:30.271Z,13.20
2022-11-07T15:44:58.469Z,13.10
2022-11-07T15:47:26.705Z,13.00
2022-11-07T15:49:54.983Z,12.90
2022-11-07T15:52:23.252Z,12.80
2022-11-07T15:54:52.873Z,12.70
2022-11-07T15:57:21.420Z,12.60
2022-11-07T15:59:50.478Z,12.50
2022-11-07T16:02:19.419Z,12.30
2022-11-07T16:04:47.868Z,12.20
2022-11-07T16:07:18.980Z,12.20
2022-11-07T16:09:48.809Z,12.10
2022-11-07T16:12:19.755Z,11.90
2022-11-07T16:14:48.145Z,11.80
2022-11-07T16:17:17.891Z,11.70
2022-11-07T16:19:46.318Z,11.60
2022-11-07T16:22:16.631Z,11.50
2022-11-07T16:24:44.845Z,11.40
2022-11-07T16:27:18.826Z,11.30
2022-11-07T16:29:47.261Z,11.20
2022-11-07T16:32:18.484Z,11.10
2022-11-07T16:34:48.054Z,11.00
2022-11-07T16:37:16.332Z,11.00
2022-11-07T16:39:44.572Z,11.00
2022-11-07T16:42:15.434Z,11.00
2022-11-07T16:44:45.136Z,10.90
2022-11-07T16:47:16.108Z,10.80
2022-11-07T16:49:44.527Z,10.80
2022-11-07T16:52:16.266Z,10.80
2022-11-07T16:54:45.060Z,10.70
2022-11-07T16:57:14.656Z,10.60
2022-11-07T16:59:45.215Z,10.60
2022-11-07T17:02:21.064Z,10.50
2022-11-07T17:05:02.305Z,10.40
2022-11-07T17:07:30.670Z,10.40
2022-11-07T17:09:58.930Z,10.40
2022-11-07T17:12:52.398Z,10.40
2022-11-07T17:15:22.061Z,10.40
2022-11-07T17:17:52.246Z,10.50
2022-11-07T17:20:50.458Z,10.60
2022-11-07T17:23:13.237Z,10.70
2022-11-07T17:25:42.412Z,10.70
2022-11-07T17:28:11.197Z,10.80
2022-11-07T17:30:41.411Z,10.70
2022-11-07T17:33:09.708Z,10.70
2022-11-07T17:35:38.926Z,10.70
2022-11-07T17:38:07.760Z,10.70
2022-11-07T17:40:36.206Z,10.60
2022-11-07T17:43:04.641Z,10.60
2022-11-07T17:45:32.861Z,10.60
2022-11-07T17:48:02.489Z,10.60
2022-11-07T17:50:31.040Z,10.50
2022-11-07T17:52:59.243Z,10.50
2022-11-07T17:55:27.601Z,10.50
2022-11-07T17:57:56.203Z,10.40
2022-11-07T18:00:27.067Z,10.40
2022-11-07T18:02:55.530Z,10.40
2022-11-07T18:05:32.888Z,10.40
2022-11-07T18:08:02.584Z,10.30
2022-11-07T18:10:31.036Z,10.30
2022-11-07T18:12:59.731Z,10.30
2022-11-07T18:15:28.006Z,10.30
2022-11-07T18:17:56.240Z,10.20
2022-11-07T18:20:26.023Z,10.20
2022-11-07T18:22:54.413Z,10.20
2022-11-07T18:25:22.618Z,10.20
2022-11-07T18:27:50.878Z,10.20
2022-11-07T18:30:19.237Z,10.10
2022-11-07T18:32:47.466Z,10.10
2022-11-07T18:35:15.841Z,10.00
2022-11-07T18:37:45.497Z,10.10
2022-11-07T18:40:38.512Z,10.10
2022-11-07T18:43:09.901Z,10.00
2022-11-07T18:45:42.749Z,9.90
2022-11-07T18:48:10.915Z,9.90
2022-11-07T18:50:40.175Z,9.80
2022-11-07T18:53:25.901Z,9.90
2022-11-07T18:55:58.580Z,9.90
2022-11-07T18:58:28.903Z,9.80
2022-11-07T19:01:02.372Z,9.80
2022-11-07T19:03:30.690Z,9.80
2022-11-07T19:06:00.887Z,9.80
2022-11-07T19:08:31.336Z,9.80
2022-11-07T19:11:02.622Z,9.70
2022-11-07T19:13:31.138Z,9.70
2022-11-07T19:16:02.972Z,9.70
2022-11-07T19:18:31.201Z,9.60
2022-11-07T19:20:59.425Z,9.60
2022-11-07T19:23:27.981Z,9.60
2022-11-07T19:25:58.520Z,9.60
2022-11-07T19:28:26.748Z,9.60
2022-11-07T19:30:55.004Z,9.70
2022-11-07T19:33:23.337Z,9.70
2022-11-07T19:36:00.575Z,9.80
2022-11-07T19:38:30.349Z,9.90
2022-11-07T19:41:25.273Z,9.90
2022-11-07T19:43:53.483Z,9.90
2022-11-07T19:46:23.364Z,9.80
2022-11-07T19:48:52.371Z,9.80
2022-11-07T19:51:23.249Z,9.80
2022-11-07T19:53:55.873Z,9.80
2022-11-07T19:56:26.865Z,9.90
2022-11-07T19:58:55.568Z,9.90
2022-11-07T20:01:26.416Z,9.90
2022-11-07T20:03:55.548Z,9.80
2022-11-07T20:06:26.352Z,9.80
2022-11-07T20:08:54.893Z,9.80
2022-11-07T20:11:26.023Z,9.80
2022-11-07T20:13:58.688Z,9.80
2022-11-07T20:16:28.629Z,9.80
2022-11-07T20:18:56.865Z,9.80
2022-11-07T20:21:25.704Z,9.80
2022-11-07T20:23:54.655Z,9.70
2022-11-07T20:26:26.027Z,9.70
2022-11-07T20:28:54.779Z,9.70
2022-11-07T20:31:25.509Z,9.70
2022-11-07T20:33:54.598Z,9.70
2022-11-07T20:36:23.017Z,9.80
2022-11-07T20:38:51.251Z,9.80
2022-11-07T20:41:23.002Z,9.80
2022-11-07T20:43:55.496Z,9.80
2022-11-07T20:46:23.779Z,9.90
2022-11-07T20:48:52.125Z,9.90
2022-11-07T20:51:25.314Z,9.80
2022-11-07T20:53:54.637Z,9.90
2022-11-07T20:56:24.647Z,9.90
2022-11-07T20:58:53.215Z,9.90
2022-11-07T21:01:26.390Z,9.80
2022-11-07T21:03:55.158Z,9.90
2022-11-07T21:06:23.464Z,9.90
2022-11-07T21:08:52.282Z,9.90
2022-11-07T21:11:20.472Z,9.80
2022-11-07T21:13:52.945Z,9.90
2022-11-07T21:16:23.682Z,9.90
2022-11-07T21:18:52.818Z,9.90
2022-11-07T21:21:23.030Z,9.90
2022-11-07T21:23:52.199Z,9.90
2022-11-07T21:26:22.713Z,9.90
2022-11-07T21:28:52.089Z,9.90
2022-11-07T21:31:24.983Z,9.90
2022-11-07T21:33:53.775Z,9.90
2022-11-07T21:36:24.083Z,9.90
2022-11-07T21:38:54.343Z,9.90
2022-11-07T21:41:22.875Z,9.90
2022-11-07T21:43:51.600Z,9.90
2022-11-07T21:46:21.872Z,9.90
2022-11-07T21:48:51.948Z,9.90
2022-11-07T21:51:22.009Z,9.80
2022-11-07T21:53:51.137Z,9.90
2022-11-07T21:56:22.680Z,9.80
2022-11-07T21:58:51.771Z,9.80
2022-11-07T22:01:21.021Z,9.90
2022-11-07T22:04:06.139Z,9.90
2022-11-07T22:06:37.497Z,9.90
2022-11-07T22:09:06.816Z,9.90
2022-11-07T22:11:39.340Z,9.90
2022-11-07T22:14:07.720Z,9.90
2022-11-07T22:16:36.270Z,9.90
2022-11-07T22:19:11.171Z,9.90
2022-11-07T22:21:40.965Z,9.90
2022-11-07T22:24:09.842Z,9.90
2022-11-07T22:26:38.494Z,10.00
2022-11-07T22:29:06.739Z,10.00
2022-11-07T22:31:35.131Z,10.00
2022-11-07T22:34:05.029Z,10.00
2022-11-07T22:36:33.372Z,9.90
2022-11-07T22:39:01.610Z,10.00
2022-11-07T22:41:30.451Z,10.10
2022-11-07T22:43:59.063Z,10.00
2022-11-07T22:46:29.359Z,10.00
2022-11-07T22:48:58.916Z,10.00
2022-11-07T22:51:31.277Z,9.90
2022-11-07T22:54:00.626Z,9.90
2022-11-07T22:56:29.586Z,9.90
2022-11-07T22:58:57.976Z,9.90
2022-11-07T23:01:27.672Z,9.90
2022-11-07T23:03:57.733Z,9.90
2022-11-07T23:06:28.923Z,9.90
2022-11-07T23:08:58.188Z,9.90
2022-11-07T23:11:52.071Z,9.90
2022-11-07T23:14:21.781Z,9.90
2022-11-07T23:16:52.158Z,9.90
2022-11-07T23:19:22.863Z,9.90
2022-11-07T23:21:53.294Z,10.00
2022-11-07T23:24:21.895Z,10.00
2022-11-07T23:26:50.688Z,10.00
2022-11-07T23:29:21.047Z,10.00
2022-11-07T23:31:50.304Z,10.00
2022-11-07T23:34:19.599Z,10.00
2022-11-07T23:36:50.628Z,10.00
2022-11-07T23:39:21.920Z,9.90
2022-11-07T23:41:50.264Z,9.90
2022-11-07T23:44:18.834Z,9.90
2022-11-07T23:47:04.469Z,9.80
2022-11-07T23:49:49.957Z,9.80
2022-11-07T23:52:18.924Z,9.80
2022-11-07T23:55:06.710Z,9.80
2022-11-07T23:57:55.674Z,9.80
